Time;durP1;ratioP1;P1;durP2;ratioP2;P2;SDS_P1;SDS_P2;PMS_P1;PMS_P2;Temp;Humidity;BMP_temperature;BMP_pressure;BME280_temperature;BME280_humidity;BME280_pressure;Samples;Min_cycle;Max_cycle;Signal;HPM_P1;HPM_P2
2021/03/28 00:00:12;;;;;;;7.22;4.08;;;;;;;3.80;75.70;100059.16;1566104;90;21185;-69
2021/03/28 00:02:58;;;;;;;12.93;4.62;;;;;;;3.81;75.72;100060.44;1596801;88;21203;-70
2021/03/28 00:05:34;;;;;;;8.23;3.90;;;;;;;3.84;75.81;100066.41;1585990;88;21331;-68
2021/03/28 00:08:24;;;;;;;7.40;4.40;;;;;;;3.83;75.75;100060.40;1600629;87;21227;-68
2021/03/28 00:10:55;;;;;;;7.33;4.08;;;;;;;3.81;75.78;100057.86;1576093;88;21233;-69
2021/03/28 00:13:29;;;;;;;11.38;4.00;;;;;;;3.81;75.78;100057.86;1580224;89;21313;-69
2021/03/28 00:16:00;;;;;;;8.03;3.60;;;;;;;3.81;75.83;100064.31;1578227;89;21324;-69
2021/03/28 00:19:00;;;;;;;11.05;4.00;;;;;;;3.81;75.78;100057.01;1580570;89;21689;-68
2021/03/28 00:21:34;;;;;;;7.70;3.75;;;;;;;3.79;75.79;100063.92;1583111;89;21182;-69
2021/03/28 00:24:40;;;;;;;6.55;3.92;;;;;;;3.71;75.75;100061.44;1603748;88;21173;-68
2021/03/28 00:27:17;;;;;;;4.90;3.17;;;;;;;3.66;75.80;100063.22;1587086;88;21736;-69
2021/03/28 00:30:03;;;;;;;7.70;3.72;;;;;;;3.60;75.87;100073.64;1601612;87;21974;-69
2021/03/28 00:32:47;;;;;;;9.20;3.67;;;;;;;3.54;75.92;100071.14;1596499;88;21270;-70
2021/03/28 00:35:17;;;;;;;6.12;4.10;;;;;;;3.53;76.04;100079.77;1602291;88;21219;-69
2021/03/28 00:37:49;;;;;;;6.12;3.60;;;;;;;3.54;76.07;100082.76;1601631;88;21245;-69
2021/03/28 00:40:21;;;;;;;7.42;3.50;;;;;;;3.55;76.14;100083.16;1599927;88;21190;-69
2021/03/28 00:42:52;;;;;;;10.13;4.50;;;;;;;3.55;76.12;100081.43;1585990;88;21251;-69
2021/03/28 00:45:42;;;;;;;7.40;3.98;;;;;;;3.58;76.16;100080.54;1588999;88;21258;-70
2021/03/28 00:48:22;;;;;;;10.50;3.98;;;;;;;3.59;76.19;100082.27;1602451;88;21233;-69
2021/03/28 00:51:30;;;;;;;9.68;3.12;;;;;;;3.61;76.17;100085.66;1606495;88;21239;-69
2021/03/28 00:54:16;;;;;;;8.25;3.60;;;;;;;3.62;76.25;100088.68;1609738;87;21206;-70
2021/03/28 00:56:51;;;;;;;7.72;3.33;;;;;;;3.58;76.14;100085.70;1612806;85;22385;-69
2021/03/28 00:59:38;;;;;;;7.67;3.98;;;;;;;3.47;76.19;100091.00;1611794;87;21225;-70
2021/03/28 01:02:19;;;;;;;10.05;3.92;;;;;;;3.42;76.18;100102.25;1611291;87;21869;-70
2021/03/28 01:05:39;;;;;;;7.87;4.37;;;;;;;3.39;76.36;100091.97;1607062;87;21257;-70
2021/03/28 01:08:40;;;;;;;16.50;4.03;;;;;;;3.44;76.53;100095.35;1833372;76;22844;-68
2021/03/28 01:11:29;;;;;;;9.70;4.05;;;;;;;3.40;76.47;100101.44;1791478;79;21166;-69
2021/03/28 01:14:19;;;;;;;7.22;3.27;;;;;;;3.42;76.45;100099.67;1803448;79;21197;-69
2021/03/28 01:17:23;;;;;;;8.08;3.35;;;;;;;3.43;76.44;100110.44;1804068;79;21023;-70
2021/03/28 01:20:17;;;;;;;10.70;3.45;;;;;;;3.45;76.50;100102.25;1742251;80;21181;-68
2021/03/28 01:23:19;;;;;;;9.00;3.62;;;;;;;3.49;76.55;100109.06;1672121;84;21690;-69
2021/03/28 01:26:13;;;;;;;9.88;4.17;;;;;;;3.51;76.51;100113.78;1665503;84;21195;-69
2021/03/28 01:28:55;;;;;;;8.48;3.62;;;;;;;3.53;76.54;100118.05;1694903;82;21278;-69
2021/03/28 01:31:30;;;;;;;9.35;3.90;;;;;;;3.53;76.54;100121.08;1655660;85;21650;-70
2021/03/28 01:34:17;;;;;;;8.23;3.47;;;;;;;3.55;76.62;100120.60;1701058;82;21056;-70
2021/03/28 01:37:02;;;;;;;11.85;3.75;;;;;;;3.56;76.64;100123.62;1702785;83;21200;-68
2021/03/28 01:39:46;;;;;;;9.13;3.37;;;;;;;3.61;76.62;100126.13;1700807;82;21228;-69
2021/03/28 01:42:22;;;;;;;9.60;2.87;;;;;;;3.63;76.63;100130.84;1708593;83;21495;-70
2021/03/28 01:44:56;;;;;;;7.53;3.08;;;;;;;3.64;76.65;100129.55;1695991;83;21228;-68
2021/03/28 01:47:46;;;;;;;10.68;3.35;;;;;;;3.65;76.66;100128.66;1699561;83;21155;-69
2021/03/28 01:50:47;;;;;;;10.60;3.12;;;;;;;3.68;76.66;100131.20;1666884;84;21180;-70
2021/03/28 01:53:43;;;;;;;8.90;3.08;;;;;;;3.68;76.69;100132.50;1588629;89;21241;-68
2021/03/28 01:56:49;;;;;;;7.97;3.35;;;;;;;3.72;76.59;100132.02;1836222;77;22869;-68
2021/03/28 01:59:28;;;;;;;11.57;3.62;;;;;;;3.66;76.66;100130.36;1799182;78;21029;-69
2021/03/28 02:02:21;;;;;;;10.00;3.45;;;;;;;3.67;76.68;100129.51;1801595;78;21397;-69
2021/03/28 02:05:23;;;;;;;5.83;3.17;;;;;;;3.67;76.63;100129.51;1796687;78;21579;-69
2021/03/28 02:08:19;;;;;;;10.32;3.52;;;;;;;3.66;76.73;100129.07;1797498;78;21052;-68
2021/03/28 02:10:51;;;;;;;6.55;3.60;;;;;;;3.67;76.79;100137.26;1799939;78;21117;-70
2021/03/28 02:13:43;;;;;;;12.50;3.62;;;;;;;3.66;76.73;100126.48;1802896;78;21573;-70
2021/03/28 02:16:33;;;;;;;10.88;3.08;;;;;;;3.67;76.76;100129.51;1795873;78;21142;-68
2021/03/28 02:19:28;;;;;;;12.88;3.75;;;;;;;3.70;76.80;100126.88;1801943;78;21062;-70
2021/03/28 02:22:51;;;;;;;8.93;3.25;;;;;;;3.69;76.77;100132.91;1586877;88;21443;-67
2021/03/28 02:25:51;;;;;;;10.65;3.27;;;;;;;3.69;76.78;100135.48;1652638;85;21209;-69
2021/03/28 02:28:49;;;;;;;10.20;2.98;;;;;;;3.70;76.81;100138.51;1620748;86;21165;-69
2021/03/28 02:31:34;;;;;;;6.33;3.02;;;;;;;3.69;76.79;100148.40;1598478;87;21694;-70
2021/03/28 02:34:17;;;;;;;8.95;3.00;;;;;;;3.71;76.87;100132.45;1822016;77;22608;-68
2021/03/28 02:36:49;;;;;;;8.63;3.58;;;;;;;3.66;76.83;100148.44;1795462;78;21057;-68
2021/03/28 02:39:50;;;;;;;12.23;3.60;;;;;;;3.67;76.88;100142.42;1716424;83;21282;-69
2021/03/28 02:42:29;;;;;;;12.07;3.50;;;;;;;3.67;76.88;100145.00;1717549;82;21004;-68
2021/03/28 02:45:21;;;;;;;9.37;4.13;;;;;;;3.72;76.83;100148.36;1810058;77;28047;-69
2021/03/28 02:48:19;;;;;;;12.65;3.50;;;;;;;3.72;76.79;100153.52;1800113;78;21571;-69
2021/03/28 02:51:16;;;;;;;9.60;3.45;;;;;;;3.72;76.82;100153.52;1805754;78;21257;-69
2021/03/28 02:54:19;;;;;;;11.35;3.00;;;;;;;3.75;76.86;100163.84;1797963;78;21066;-68
2021/03/28 02:57:20;;;;;;;10.30;4.08;;;;;;;3.71;76.90;100159.57;1744969;80;21041;-69
2021/03/28 03:00:12;;;;;;;12.90;4.15;;;;;;;3.70;76.96;100157.88;1671070;83;21451;-69
2021/03/28 03:02:47;;;;;;;9.43;3.55;;;;;;;3.70;77.04;100161.75;1731266;81;21141;-70
2021/03/28 03:05:42;;;;;;;11.05;3.95;;;;;;;3.71;76.97;100162.16;1731770;81;21773;-70
2021/03/28 03:08:35;;;;;;;8.18;3.62;;;;;;;3.72;77.01;100159.13;1729273;81;21109;-69
2021/03/28 03:11:56;;;;;;;16.77;4.20;;;;;;;3.72;77.07;100163.85;1732068;81;21622;-70
2021/03/28 03:14:55;;;;;;;10.72;3.52;;;;;;;3.81;77.16;100160.33;1828083;77;22734;-69
2021/03/28 03:18:02;;;;;;;10.53;4.03;;;;;;;3.78;77.09;100161.22;1796116;78;21660;-70
2021/03/28 03:21:11;;;;;;;6.95;3.17;;;;;;;3.76;77.05;100157.80;1801874;78;21623;-69
2021/03/28 03:24:16;;;;;;;7.90;3.55;;;;;;;3.75;77.08;100166.42;1800054;78;21633;-69
2021/03/28 03:27:21;;;;;;;12.47;4.35;;;;;;;3.72;77.15;100161.27;1797856;78;21622;-70
2021/03/28 03:30:22;;;;;;;13.78;4.10;;;;;;;3.71;77.19;100164.73;1795519;78;21180;-69
2021/03/28 03:33:33;;;;;;;9.35;3.35;;;;;;;3.70;77.12;100164.77;1799834;78;21024;-70
2021/03/28 03:36:24;;;;;;;8.53;3.30;;;;;;;3.68;77.21;100169.94;1799345;78;21212;-69
2021/03/28 03:39:11;;;;;;;10.28;3.92;;;;;;;3.67;77.19;100175.11;1796431;78;21049;-69
2021/03/28 03:41:50;;;;;;;8.73;3.72;;;;;;;3.66;77.29;100176.84;1797492;78;21116;-70
2021/03/28 03:44:56;;;;;;;12.33;4.08;;;;;;;3.62;77.24;100180.35;1796705;78;21155;-68
2021/03/28 03:47:42;;;;;;;;;;;;;;;3.61;77.29;100178.63;1726996;81;21227;-69
2021/03/28 03:50:45;;;;;;;12.05;3.52;;;;;;;3.60;77.44;100184.67;1729960;81;22306;-69
2021/03/28 03:53:40;;;;;;;10.13;3.40;;;;;;;3.60;77.42;100184.67;1732167;81;21183;-68
2021/03/28 03:57:01;;;;;;;10.88;3.60;;;;;;;3.59;77.41;100191.56;1723698;81;21072;-70
2021/03/28 03:59:53;;;;;;;8.43;3.55;;;;;;;3.58;77.39;100192.86;1729190;81;21696;-69
2021/03/28 04:02:26;;;;;;;12.93;4.37;;;;;;;3.58;77.46;100192.45;1686436;83;21276;-69
2021/03/28 04:05:20;;;;;;;11.00;4.03;;;;;;;3.58;77.48;100189.87;1728260;81;21681;-70
2021/03/28 04:08:31;;;;;;;12.28;4.25;;;;;;;3.59;77.46;100204.92;1729521;81;21680;-69
2021/03/28 04:11:28;;;;;;;14.35;4.17;;;;;;;3.54;77.46;100207.98;1680850;83;21676;-67
2021/03/28 04:14:28;;;;;;;8.30;3.55;;;;;;;3.55;77.59;100216.98;1835793;77;22207;-68
2021/03/28 04:17:26;;;;;;;11.30;3.87;;;;;;;3.53;77.66;100220.48;1806244;77;21112;-70
2021/03/28 04:20:19;;;;;;;11.40;3.80;;;;;;;3.53;77.60;100217.91;1744827;81;21273;-71
2021/03/28 04:23:15;;;;;;;7.75;3.70;;;;;;;3.52;77.60;100229.08;1754995;79;21094;-68
2021/03/28 04:26:07;;;;;;;11.93;3.83;;;;;;;3.52;77.67;100235.53;1753896;81;21123;-69
2021/03/28 04:28:51;;;;;;;10.80;4.35;;;;;;;3.51;77.62;100233.84;1735454;80;21036;-69
2021/03/28 04:31:49;;;;;;;9.40;3.98;;;;;;;3.49;77.65;100244.61;1743005;80;21069;-71
2021/03/28 04:34:30;;;;;;;10.48;4.25;;;;;;;3.47;77.63;100238.16;1742508;81;22374;-69
2021/03/28 04:37:40;;;;;;;10.10;4.17;;;;;;;3.45;77.77;100251.53;1759975;79;21106;-71
2021/03/28 04:40:40;;;;;;;10.55;3.95;;;;;;;3.43;77.74;100249.84;1741543;81;20970;-69
2021/03/28 04:43:38;;;;;;;9.63;3.85;;;;;;;3.42;77.80;100259.72;1761714;80;21585;-68
2021/03/28 04:46:42;;;;;;;11.63;4.90;;;;;;;3.40;77.86;100266.64;1753914;80;21586;-70
2021/03/28 04:49:56;;;;;;;6.08;3.45;;;;;;;3.38;77.89;100259.34;1756754;80;22341;-68
2021/03/28 04:52:55;;;;;;;8.90;3.60;;;;;;;3.39;77.84;100268.78;1724031;81;21758;-70
2021/03/28 04:56:13;;;;;;;7.70;3.27;;;;;;;3.35;77.92;100277.85;1736766;80;21193;-69
2021/03/28 04:59:08;;;;;;;6.45;3.00;;;;;;;3.35;77.89;100282.16;1755659;79;21607;-68
2021/03/28 05:01:46;;;;;;;7.55;3.02;;;;;;;3.31;77.90;100283.92;1703956;83;21673;-68
2021/03/28 05:05:03;;;;;;;7.67;3.37;;;;;;;3.34;77.97;100285.19;1811056;77;38473;-69
2021/03/28 05:08:17;;;;;;;5.08;2.45;;;;;;;3.34;77.77;100289.06;1797984;78;21554;-70
2021/03/28 05:11:08;;;;;;;5.87;2.85;;;;;;;3.35;77.84;100297.66;1799061;78;21781;-68
2021/03/28 05:14:10;;;;;;;9.73;2.47;;;;;;;3.32;77.86;100292.52;1798582;78;21063;-69
2021/03/28 05:17:11;;;;;;;7.55;3.12;;;;;;;3.28;77.91;100300.73;1794250;78;21617;-68
2021/03/28 05:19:58;;;;;;;7.22;2.80;;;;;;;3.29;78.07;100297.27;1796830;78;21388;-70
2021/03/28 05:23:15;;;;;;;5.25;3.00;;;;;;;3.30;78.07;100297.68;1796496;78;21105;-70
2021/03/28 05:26:18;;;;;;;6.62;2.98;;;;;;;3.29;78.06;100305.02;1638067;86;21226;-70
2021/03/28 05:29:18;;;;;;;8.55;2.87;;;;;;;3.28;78.10;100314.92;1608346;88;21182;-70
2021/03/28 05:32:05;;;;;;;8.20;3.12;;;;;;;3.26;78.11;100314.08;1591304;88;22378;-69
2021/03/28 05:35:14;;;;;;;9.73;3.22;;;;;;;3.28;78.23;100325.25;1607643;88;21236;-69
2021/03/28 05:38:23;;;;;;;8.15;3.42;;;;;;;3.34;78.23;100320.03;1594347;89;21286;-68
2021/03/28 05:41:27;;;;;;;6.60;2.52;;;;;;;3.35;78.22;100326.90;1598083;89;21516;-68
2021/03/28 05:44:11;;;;;;;5.95;3.12;;;;;;;3.40;78.24;100331.19;1596299;88;21227;-68
2021/03/28 05:47:04;;;;;;;8.13;2.95;;;;;;;3.46;78.39;100332.42;1611245;88;21218;-70
2021/03/28 05:53:40;;;;;;;8.53;4.05;;;;;;;3.65;78.38;100343.01;1666383;84;21312;-68
2021/03/28 05:56:41;;;;;;;11.13;3.37;;;;;;;3.70;78.32;100340.39;1647020;85;21225;-70
2021/03/28 05:59:46;;;;;;;11.93;4.03;;;;;;;3.74;78.24;100349.37;1651807;86;21813;-70
2021/03/28 06:02:34;;;;;;;10.38;3.40;;;;;;;3.77;78.30;100342.88;1668448;84;21562;-68
2021/03/28 06:05:21;;;;;;;9.53;4.35;;;;;;;3.86;78.26;100351.41;1635627;87;21234;-69
2021/03/28 06:08:30;;;;;;;10.43;3.47;;;;;;;3.96;78.29;100353.05;1662012;84;21602;-70
2021/03/28 06:11:33;;;;;;;10.32;3.65;;;;;;;4.02;78.26;100355.56;1664529;84;21224;-69
2021/03/28 06:14:23;;;;;;;14.90;3.83;;;;;;;4.00;78.11;100357.30;1660947;84;21230;-69
2021/03/28 06:17:20;;;;;;;18.20;4.20;;;;;;;3.94;78.08;100365.12;1634587;86;21169;-70
2021/03/28 06:20:24;;;;;;;11.78;3.52;;;;;;;3.90;78.15;100372.48;1640217;85;21226;-70
2021/03/28 06:23:33;;;;;;;14.68;4.75;;;;;;;3.84;78.12;100376.39;1642662;85;21191;-69
2021/03/28 06:26:23;;;;;;;13.22;3.08;;;;;;;3.75;78.18;100378.22;1626405;86;21405;-69
2021/03/28 06:29:27;;;;;;;14.55;3.83;;;;;;;3.63;78.04;100383.48;1655695;85;21224;-69
2021/03/28 06:32:15;;;;;;;11.73;3.75;;;;;;;3.53;78.20;100387.88;1653859;85;21262;-69
2021/03/28 06:35:18;;;;;;;14.33;4.10;;;;;;;3.52;78.31;100384.84;1651416;85;21721;-70
2021/03/28 06:38:07;;;;;;;13.93;3.80;;;;;;;3.54;78.41;100393.89;1653169;86;21214;-69
2021/03/28 06:41:15;;;;;;;16.57;4.00;;;;;;;3.56;78.47;100392.16;1655447;85;21257;-70
2021/03/28 06:44:23;;;;;;;13.95;3.58;;;;;;;3.59;78.37;100399.87;1660957;84;21119;-69
2021/03/28 06:47:22;;;;;;;12.45;3.77;;;;;;;3.59;78.33;100405.05;1658978;84;21068;-69
2021/03/28 06:50:30;;;;;;;11.70;3.02;;;;;;;3.58;78.27;100402.02;1605002;87;22012;-69
2021/03/28 06:53:12;;;;;;;11.88;3.00;;;;;;;3.58;78.15;100408.47;1609887;87;21262;-69
2021/03/28 06:55:45;;;;;;;16.95;3.87;;;;;;;3.58;78.22;100406.77;1661029;84;22137;-69
2021/03/28 06:58:51;;;;;;;12.25;3.02;;;;;;;3.60;78.20;100411.91;1663610;84;21318;-68
2021/03/28 07:01:55;;;;;;;11.03;2.67;;;;;;;3.62;78.12;100414.05;1663093;84;21219;-69
2021/03/28 07:05:03;;;;;;;13.53;2.95;;;;;;;3.63;77.99;100417.05;1644985;85;21843;-69
2021/03/28 07:07:55;;;;;;;16.32;3.15;;;;;;;3.66;78.05;100415.73;1643843;85;22192;-72
2021/03/28 07:10:33;;;;;;;17.37;3.80;;;;;;;3.67;78.01;100414.88;1609899;87;21298;-70
2021/03/28 07:13:36;;;;;;;13.15;3.58;;;;;;;3.77;78.07;100418.23;1609036;87;21388;-71
2021/03/28 07:16:41;;;;;;;12.35;3.05;;;;;;;3.84;77.95;100415.15;1613757;87;21320;-72
2021/03/28 07:19:33;;;;;;;14.83;3.65;;;;;;;3.93;77.87;100420.25;1791989;77;22799;-70
2021/03/28 07:22:35;;;;;;;13.48;2.98;;;;;;;3.97;77.92;100414.17;1767377;80;21384;-72
2021/03/28 07:25:27;;;;;;;14.85;3.40;;;;;;;4.04;77.85;100404.22;1684115;83;21376;-73
2021/03/28 07:28:44;;;;;;;14.20;3.33;;;;;;;4.16;77.90;100417.45;1684277;83;21705;-69
2021/03/28 07:32:05;;;;;;;13.53;3.90;;;;;;;4.20;77.77;100409.66;1689855;83;21176;-70
2021/03/28 07:34:58;;;;;;;12.33;3.25;;;;;;;4.18;77.70;100410.11;1692666;83;21701;-70
2021/03/28 07:38:07;;;;;;;16.82;4.22;;;;;;;4.16;77.67;100420.88;1695976;83;21704;-71
2021/03/28 07:41:03;;;;;;;16.60;5.65;;;;;;;4.12;77.62;100432.14;1693883;83;21279;-70
2021/03/28 07:44:11;;;;;;;17.77;4.17;;;;;;;4.11;77.66;100421.80;1689253;83;21198;-70
2021/03/28 07:47:17;;;;;;;12.73;3.77;;;;;;;4.22;77.89;100423.41;1688406;83;21586;-70
2021/03/28 07:50:37;;;;;;;10.33;4.00;;;;;;;4.55;78.00;100423.92;1702737;83;21242;-70
2021/03/28 07:53:41;;;;;;;11.40;4.42;;;;;;;4.82;77.68;100416.72;1692877;83;21532;-70
2021/03/28 07:56:48;;;;;;;16.93;5.55;;;;;;;4.92;77.25;100420.88;1696387;83;22213;-70
2021/03/28 07:59:45;;;;;;;9.40;3.42;;;;;;;4.92;76.59;100426.06;1690563;83;21153;-69
2021/03/28 08:02:57;;;;;;;11.38;3.15;;;;;;;4.98;76.98;100428.56;1768426;80;21159;-69
2021/03/28 08:06:07;;;;;;;13.13;3.52;;;;;;;5.13;77.00;100436.58;1768685;80;21207;-72
2021/03/28 08:09:09;;;;;;;12.13;3.37;;;;;;;5.19;76.71;100436.94;1769503;80;21164;-71
2021/03/28 08:14:43;;;;;;;13.28;3.27;;;;;;;5.15;76.72;100438.69;1693535;82;21262;-68
2021/03/28 08:17:57;;;;;;;10.00;3.58;;;;;;;5.18;76.69;100433.91;1696401;83;21008;-69
2021/03/28 08:21:17;;;;;;;9.50;3.27;;;;;;;5.37;76.95;100437.95;1691360;84;21784;-68
2021/03/28 08:24:07;;;;;;;10.60;3.52;;;;;;;5.61;76.22;100435.45;1699670;83;21183;-69
2021/03/28 08:27:15;;;;;;;7.12;2.67;;;;;;;5.53;75.70;100443.33;1695116;83;21647;-69
2021/03/28 08:29:59;;;;;;;10.98;4.33;;;;;;;5.55;76.17;100437.70;1699404;82;21293;-69
2021/03/28 08:33:07;;;;;;;11.43;2.87;;;;;;;5.72;76.00;100432.70;1692949;83;21029;-70
2021/03/28 08:35:56;;;;;;;10.90;3.02;;;;;;;5.77;75.56;100438.63;1699059;83;22500;-69
2021/03/28 08:39:05;;;;;;;8.88;2.80;;;;;;;5.89;75.77;100441.05;1698088;83;21681;-70
2021/03/28 08:42:00;;;;;;;10.58;2.90;;;;;;;6.03;75.64;100444.29;1659721;85;23005;-69
2021/03/28 08:45:06;;;;;;;10.00;3.30;;;;;;;6.11;75.33;100443.31;1691516;83;21229;-69
2021/03/28 08:47:47;;;;;;;10.08;5.03;;;;;;;6.16;75.27;100442.77;1689949;84;21234;-69
2021/03/28 08:50:31;;;;;;;9.13;3.37;;;;;;;6.15;75.13;100448.84;1689338;83;21540;-69
2021/03/28 08:53:51;;;;;;;8.53;3.40;;;;;;;6.14;74.92;100453.63;1576110;89;21327;-70
2021/03/28 08:56:32;;;;;;;8.45;2.50;;;;;;;6.16;74.87;100457.03;1579671;89;21350;-69
2021/03/28 08:59:46;;;;;;;7.22;2.58;;;;;;;6.55;75.11;100444.22;1830455;77;22771;-68
2021/03/28 09:02:43;;;;;;;10.90;3.37;;;;;;;6.78;74.90;100451.55;1803061;78;21637;-69
2021/03/28 09:05:44;;;;;;;9.83;3.15;;;;;;;6.89;74.62;100454.36;1747722;80;22935;-69
2021/03/28 09:08:25;;;;;;;8.55;3.17;;;;;;;6.97;74.05;100459.83;1753669;80;20994;-69
2021/03/28 09:11:23;;;;;;;6.70;2.62;;;;;;;6.81;73.61;100459.30;1765314;80;21037;-69
2021/03/28 09:14:15;;;;;;;7.72;2.58;;;;;;;6.77;74.26;100461.08;1747287;80;21015;-69
2021/03/28 09:16:51;;;;;;;9.75;2.65;;;;;;;6.90;73.77;100465.15;1734307;81;21042;-68
2021/03/28 09:20:01;;;;;;;8.15;2.58;;;;;;;6.90;73.87;100465.15;1738900;81;22184;-69
2021/03/28 09:22:49;;;;;;;5.95;2.20;;;;;;;6.87;73.67;100465.21;1733778;81;21090;-70
2021/03/28 09:25:27;;;;;;;5.92;2.42;;;;;;;6.98;73.69;100462.85;1737506;81;21159;-70
2021/03/28 09:28:41;;;;;;;4.65;2.22;;;;;;;6.89;73.44;100466.05;1744292;81;21236;-71
2021/03/28 09:34:48;;;;;;;7.67;3.00;;;;;;;6.68;73.49;100474.25;1674901;84;21207;-70
2021/03/28 09:37:51;;;;;;;7.97;2.85;;;;;;;6.60;73.21;100470.94;1678062;84;21243;-70
2021/03/28 09:40:42;;;;;;;9.73;2.37;;;;;;;6.52;73.03;100480.16;1678803;84;21694;-70
2021/03/28 09:43:45;;;;;;;7.70;2.83;;;;;;;6.61;73.15;100479.12;1647672;85;21234;-69
2021/03/28 09:46:33;;;;;;;10.95;2.80;;;;;;;6.84;73.31;100483.45;1648913;85;21723;-70
2021/03/28 09:49:34;;;;;;;6.85;2.22;;;;;;;7.14;73.06;100482.39;1647599;85;22430;-70
2021/03/28 09:52:29;;;;;;;9.03;1.98;;;;;;;7.16;72.32;100469.79;1644026;85;21203;-70
2021/03/28 09:55:33;;;;;;;7.90;2.35;;;;;;;7.38;72.62;100472.78;1648624;85;21610;-71
2021/03/28 10:01:50;;;;;;;7.37;2.30;;;;;;;7.62;71.81;100480.93;1829338;77;22183;-71
2021/03/28 10:04:48;;;;;;;7.33;2.47;;;;;;;7.63;72.28;100487.83;1800229;78;21226;-70
2021/03/28 10:07:26;;;;;;;7.37;2.40;;;;;;;7.74;72.26;100480.64;1801981;78;22053;-72
2021/03/28 10:10:23;;;;;;;6.30;2.40;;;;;;;7.84;72.03;100477.36;1759909;78;21164;-69
2021/03/28 10:13:00;;;;;;;5.05;1.95;;;;;;;7.89;71.76;100481.16;1751248;80;21032;-70
2021/03/28 10:15:30;;;;;;;9.60;2.75;;;;;;;7.73;71.31;100491.94;1766551;79;21039;-70
2021/03/28 10:18:25;;;;;;;10.90;4.65;;;;;;;7.93;72.24;100488.01;1770351;79;21044;-72
2021/03/28 10:25:01;;;;;;;12.30;5.00;;;;;;;8.33;70.61;100477.91;1572937;89;21297;-70
2021/03/28 10:28:16;;;;;;;6.35;2.15;;;;;;;8.24;70.43;100478.55;1627926;86;21228;-70
2021/03/28 10:31:07;;;;;;;7.90;2.45;;;;;;;8.16;70.58;100486.98;1630116;86;21364;-70
2021/03/28 10:34:13;;;;;;;11.45;2.12;;;;;;;8.35;70.73;100493.03;1631428;86;21284;-71
2021/03/28 10:37:05;;;;;;;5.08;1.92;;;;;;;8.27;70.17;100501.87;1626959;86;21429;-70
2021/03/28 10:39:55;;;;;;;6.10;1.70;;;;;;;8.13;70.05;100506.58;1629998;86;21294;-71
2021/03/28 10:42:45;;;;;;;5.17;1.60;;;;;;;8.00;70.03;100502.55;1627231;86;21173;-71
2021/03/28 10:45:35;;;;;;;5.70;1.85;;;;;;;8.02;69.95;100505.98;1629030;86;21305;-72
2021/03/28 10:48:56;;;;;;;5.55;1.87;;;;;;;8.20;70.20;100506.81;1629086;86;21193;-74
2021/03/28 10:52:04;;;;;;;6.60;1.62;;;;;;;8.22;69.78;100502.44;1630573;86;21449;-72
2021/03/28 10:55:02;;;;;;;7.37;1.47;;;;;;;8.02;68.61;100508.58;1650392;81;21244;-72
2021/03/28 10:58:16;;;;;;;5.55;1.95;;;;;;;7.82;69.03;100512.51;1703551;82;21226;-72
2021/03/28 11:04:49;;;;;;;4.35;1.70;;;;;;;7.89;69.62;100515.81;1660298;85;21215;-70
2021/03/28 11:07:54;;;;;;;6.83;1.92;;;;;;;8.21;69.37;100504.64;1629452;86;21221;-72
2021/03/28 11:10:29;;;;;;;5.97;1.50;;;;;;;8.34;68.80;100501.72;1680235;83;21286;-70
2021/03/28 11:13:52;;;;;;;5.28;1.42;;;;;;;8.45;68.65;100504.92;1672532;83;21140;-71
2021/03/28 11:16:43;;;;;;;6.92;1.85;;;;;;;8.51;68.59;100499.55;1685053;83;21323;-71
2021/03/28 11:19:57;;;;;;;6.42;1.20;;;;;;;8.66;68.07;100496.56;1682484;84;21140;-72
2021/03/28 11:22:45;;;;;;;5.58;1.60;;;;;;;8.72;67.80;100495.09;1683468;83;21316;-71
2021/03/28 11:25:24;;;;;;;6.60;2.40;;;;;;;8.82;67.82;100496.12;1755914;78;28034;-70
2021/03/28 11:28:29;;;;;;;4.72;1.42;;;;;;;9.04;68.51;100499.84;1744214;80;21362;-70
2021/03/28 11:31:17;;;;;;;3.62;1.12;;;;;;;9.28;67.70;100487.02;1746863;80;21213;-71
2021/03/28 11:33:58;;;;;;;11.08;1.50;;;;;;;9.36;67.39;100486.34;1738764;80;21100;-70
2021/03/28 11:36:28;;;;;;;6.60;2.00;;;;;;;9.33;67.28;100483.83;1755282;80;21186;-71
2021/03/28 11:39:27;;;;;;;4.10;1.62;;;;;;;9.28;67.17;100487.02;1742681;80;21295;-71
2021/03/28 11:42:14;;;;;;;5.47;1.50;;;;;;;9.29;67.10;100480.44;1744083;81;21052;-72
2021/03/28 11:44:44;;;;;;;;;;;;;;;9.35;66.43;100489.40;1747222;80;22175;-72
2021/03/28 11:47:22;;;;;;;5.62;2.22;;;;;;;9.37;66.55;100491.94;1740694;81;20236;-73
2021/03/28 11:50:06;;;;;;;4.42;1.60;;;;;;;9.31;65.75;100494.73;1741634;80;21227;-73
2021/03/28 11:52:57;;;;;;;6.00;1.98;;;;;;;9.24;66.58;100497.95;1743934;80;22742;-73
2021/03/28 11:55:48;;;;;;;5.35;1.92;;;;;;;9.39;66.68;100492.76;1747087;81;21694;-73
2021/03/28 11:58:30;;;;;;;6.78;2.10;;;;;;;9.41;66.11;100489.66;1750955;80;21218;-73
2021/03/28 12:00:59;;;;;;;7.53;1.90;;;;;;;9.51;66.45;100489.77;1744971;80;22586;-72
2021/03/28 12:03:38;;;;;;;8.50;2.33;;;;;;;9.75;66.34;100487.31;1709534;82;21175;-71
2021/03/28 12:06:10;;;;;;;6.12;2.67;;;;;;;9.83;66.03;100491.38;1716331;82;21104;-73
2021/03/28 12:08:52;;;;;;;10.05;2.37;;;;;;;9.86;65.63;100494.34;1711281;82;21197;-74
2021/03/28 12:11:49;;;;;;;7.45;2.27;;;;;;;9.97;65.96;100493.55;1718312;81;21259;-73
2021/03/28 12:14:21;;;;;;;8.30;2.70;;;;;;;10.11;65.60;100481.78;1715636;82;21259;-74
2021/03/28 12:17:15;;;;;;;10.48;2.35;;;;;;;10.05;65.25;100486.33;1714820;82;21545;-74
2021/03/28 12:20:05;;;;;;;9.73;2.95;;;;;;;10.04;65.05;100488.97;1713140;82;21206;-73
2021/03/28 12:22:46;;;;;;;6.17;2.00;;;;;;;10.03;65.04;100488.59;1718218;81;21207;-73
2021/03/28 12:25:35;;;;;;;7.62;3.02;;;;;;;10.06;64.84;100493.24;1719231;81;21250;-73
2021/03/28 12:28:27;;;;;;;7.55;2.20;;;;;;;9.90;64.43;100495.94;1721105;82;21203;-73
2021/03/28 12:30:55;;;;;;;5.12;2.12;;;;;;;9.75;64.72;100485.55;1711181;83;22231;-71
2021/03/28 12:33:50;;;;;;;7.65;2.33;;;;;;;9.54;64.14;100487.06;1692104;83;21152;-72
2021/03/28 12:36:18;;;;;;;8.18;2.40;;;;;;;9.34;64.37;100482.45;1700591;83;21213;-72
2021/03/28 12:38:49;;;;;;;7.60;2.92;;;;;;;9.32;64.72;100489.92;1694114;83;21260;-70
2021/03/28 12:41:27;;;;;;;7.22;2.80;;;;;;;9.32;64.54;100486.01;1696655;83;21267;-71
2021/03/28 12:44:08;;;;;;;7.08;2.60;;;;;;;9.34;64.49;100485.52;1679947;84;21215;-71
2021/03/28 12:47:18;;;;;;;7.95;2.52;;;;;;;9.48;64.39;100482.05;1698244;83;21195;-71
2021/03/28 12:50:01;;;;;;;10.90;2.75;;;;;;;9.60;64.43;100482.11;1692416;83;21223;-71
2021/03/28 12:52:45;;;;;;;4.67;1.92;;;;;;;9.71;64.48;100475.26;1689327;83;21185;-72
2021/03/28 12:55:21;;;;;;;5.78;2.55;;;;;;;9.80;64.23;100476.27;1684091;84;21174;-73
2021/03/28 12:58:07;;;;;;;7.40;2.22;;;;;;;9.90;64.07;100476.38;1699860;82;21660;-73
2021/03/28 13:01:05;;;;;;;10.68;2.47;;;;;;;10.03;63.59;100468.56;1688748;83;21299;-73
2021/03/28 13:03:42;;;;;;;9.28;2.62;;;;;;;10.02;63.58;100463.38;1693991;82;21597;-72
2021/03/28 13:06:41;;;;;;;7.42;2.42;;;;;;;9.89;63.26;100466.86;1673893;84;21504;-72
2021/03/28 13:09:22;;;;;;;6.53;2.62;;;;;;;9.85;63.43;100470.45;1679431;83;21239;-72
2021/03/28 13:12:13;;;;;;;7.50;2.52;;;;;;;9.79;63.20;100467.59;1689241;83;21203;-72
2021/03/28 13:14:49;;;;;;;9.65;2.50;;;;;;;9.58;62.92;100471.75;1688158;83;21223;-72
2021/03/28 13:17:30;;;;;;;8.60;2.45;;;;;;;9.35;62.78;100480.70;1683936;84;21669;-71
2021/03/28 13:20:45;;;;;;;7.53;2.40;;;;;;;9.08;62.68;100483.69;1685498;83;21598;-71
2021/03/28 13:23:33;;;;;;;5.25;2.12;;;;;;;8.86;62.85;100480.84;1675207;84;21276;-72
2021/03/28 13:26:21;;;;;;;;;;;;;;;8.86;63.12;100473.03;1676973;84;21222;-71
2021/03/28 13:29:16;;;;;;;6.85;2.85;;;;;;;8.88;63.00;100472.55;1675163;84;20237;-72
2021/03/28 13:32:01;;;;;;;9.65;2.80;;;;;;;9.04;63.17;100473.78;1674617;84;21227;-72
2021/03/28 13:34:52;;;;;;;7.62;2.17;;;;;;;9.27;63.25;100464.44;1674719;84;21231;-71
2021/03/28 13:37:49;;;;;;;6.42;2.90;;;;;;;9.45;62.96;100469.11;1672544;84;21250;-70
2021/03/28 13:43:01;;;;;;;7.87;2.40;;;;;;;9.53;62.44;100455.39;1798441;78;22786;-70
2021/03/28 13:45:38;;;;;;;7.60;3.17;;;;;;;9.48;62.33;100463.80;1770904;79;21003;-71
2021/03/28 13:48:19;;;;;;;5.62;2.62;;;;;;;9.36;62.00;100459.81;1768662;80;21259;-73
2021/03/28 13:50:54;;;;;;;7.53;2.22;;;;;;;9.19;61.94;100459.48;1770915;80;21539;-71
2021/03/28 13:53:39;;;;;;;6.53;2.15;;;;;;;9.10;62.13;100460.61;1771716;80;21180;-72
2021/03/28 13:56:38;;;;;;;23.47;8.73;;;;;;;9.05;62.26;100464.24;1772385;80;21214;-72